CPF7 weather

Southampton Airport
Southampton, Ontario, Canada

Public forecast

Using degrees Celsius for public forecast. Weather courtesy of forecast.io.

Closest aviation weather report (METAR) to Southampton Airport

Closest report is Wiarton Airport, 18.0 nm (33.3 km) NNE. Retrieved 2019/11/18 18:00 UTC (2 hours ago):

CYVV 181800Z 19004KT 15SM BKN055 BKN120 BKN250 04/00 A2977 RMK SC5AC1CS1 SLP092

Closest aviation forecast (TAF) to Southampton Airport

Closest forecast is Wiarton Airport, 18.0 nm (33.3 km) NNE. Retrieved 2019/11/18 20:00 UTC (0 seconds ago):

TAF CYVV 181938Z 1820/1824 16005KT P6SM SCT050 BKN100 TEMPO 1820/1824 BKN020 OVC050 BECMG 1820/1822 VRB03KT RMK NXT FCST WILL BE ISSUED AT 191145Z